Terminal Aerodrome Forecast
Issued by NWS Milwaukee/Sullivan, WI

Home | Current Version | Previous Version | Text Only | Print | Product List | Glossary On
Versions: 1 2 3 4 5 6 7 8 9 10 11 12 13 14 15 16 17 18 19 20 21 22 23 24 25 26 27 28 29 30 31 32 33 34 35 36 37 38 39 40 41 42 43 44 45 46 47 48
000
FTUS43 KMKX 202325
TAFMSN
TAF
KMSN 202325Z 2100/2124 VRB04KT P6SM FEW200
     FM210900 17007KT P6SM BKN080
     FM211200 18008KT 5SM -TSRA BKN035CB
     FM211500 19012G24KT 5SM -TSRA OVC009CB
     FM212000 20012G22KT P6SM -SHRA VCTS OVC015CB=

USA.gov is the U.S. government's official web portal to all federal, state and local government web resources and services.